Главная страница
METAR-TAF:

METAR-TAF

Аэропорты :

Питтсбург, Пенсильвания, США

Pittsburgh International Airport

широта: 40-30-14N, долгота: 080-15-59W, высота над уровнем моря: 366 м

Текущие метеонаблюдения

Эта сводка был подготовлена 36 минут назад, в 20:51 UTC
Штиль
Температура 22°C
Влажность 21%
Давление 1024 hPa
Видимость: 16.1 км
небольшая облачность на высоте 25000 фута

METAR: KPIT 202051Z 00000KT 10SM FEW250 22/M01 A3024 RMK AO2 SLP246 T02221011 56011

Время: 17:27 (21:27 UTC)

Прогноз

Эта сводка был подготовлена 26 минут назад, в 21:01 UTC
Прогноз действительный с 20-го 21 UTC до 21-го 24 UTC
Ветер 3 Узел переменных направлений
Видимость: 10 км
ясное небо

TAF: KPIT 202101Z 2021/2124 VRB03KT P6SM SKC

Метеонаблюдения и прогнозы для более 4000 аэропортов (сводки METAR и TAF).

Имеющиеся станции представлены на карте желтыми и красными точками.

Чтобы увидеть название станции, наведите на нее мышь.

Затем щелкните, чтобы увидеть метеонаблюдения и метеопрогнозы.

Управление картой: чтобы увеличить масштаб, щелкните зеленые кнопки с черным крестиком; чтобы уменьшить масштаб, щелкните зеленую кнопку с тире; для просмотра соседних карт щелкайте зеленые стрелки.


METAR-TAF: